Time;durP1;ratioP1;P1;durP2;ratioP2;P2;SDS_P1;SDS_P2;PMS_P1;PMS_P2;Temp;Humidity;BMP_temperature;BMP_pressure;BME280_temperature;BME280_humidity;BME280_pressure;Samples;Min_cycle;Max_cycle;Signal;HPM_P1;HPM_P2
2022/09/18 07:30:23;;;;;;;7.47;2.38;;;14.40;61.80;;;;;;7397852;19;20024;-80
2022/09/18 07:32:57;;;;;;;4.95;2.38;;;14.40;61.80;;;;;;7400940;19;20011;-84
2022/09/18 07:35:30;;;;;;;7.30;2.78;;;14.50;61.70;;;;;;7402960;19;20430;-80
2022/09/18 07:41:21;;;;;;;3.97;2.00;;;14.60;62.10;;;;;;7395536;19;20022;-79
2022/09/18 07:46:28;;;;;;;6.70;2.53;;;14.80;62.00;;;;;;7368974;19;20010;-80
2022/09/18 07:48:56;;;;;;;;;;;14.90;62.20;;;;;;7391159;19;20030;-82
2022/09/18 07:51:25;;;;;;;9.13;2.42;;;15.00;62.30;;;;;;7353542;19;19926;-80
2022/09/18 07:53:54;;;;;;;4.82;2.13;;;15.00;62.30;;;;;;7375718;19;20042;-78
2022/09/18 07:56:23;;;;;;;6.38;2.13;;;15.00;62.60;;;;;;7396668;19;20042;-78
2022/09/18 07:58:51;;;;;;;6.00;2.17;;;15.10;62.90;;;;;;7372277;19;20026;-78
2022/09/18 08:01:20;;;;;;;4.60;2.03;;;15.20;63.10;;;;;;7371315;19;20058;-78
2022/09/18 08:03:52;;;;;;;6.40;2.42;;;15.20;63.00;;;;;;7374763;19;20345;-78
2022/09/18 08:06:20;;;;;;;4.47;2.20;;;15.30;63.20;;;;;;7375087;19;20018;-78
2022/09/18 08:08:49;;;;;;;4.65;2.47;;;15.40;63.30;;;;;;7373213;19;20035;-79
2022/09/18 08:11:18;;;;;;;5.20;2.40;;;15.30;63.60;;;;;;7396324;19;20044;-78
2022/09/18 08:13:49;;;;;;;6.38;2.10;;;15.40;63.80;;;;;;7373181;19;20371;-77
2022/09/18 08:16:20;;;;;;;;;;;15.40;65.00;;;;;;7373227;19;20393;-78
2022/09/18 08:18:51;;;;;;;7.88;2.22;;;15.50;64.10;;;;;;7374603;19;19910;-77
2022/09/18 08:21:20;;;;;;;;;;;15.60;64.20;;;;;;7374089;19;20035;-78
2022/09/18 08:23:49;;;;;;;4.88;2.28;;;15.70;64.60;;;;;;7374545;19;20237;-78
2022/09/18 08:26:17;;;;;;;7.25;1.95;;;15.70;64.20;;;;;;7401947;19;20093;-78
2022/09/18 08:28:46;;;;;;;9.45;2.03;;;15.70;64.40;;;;;;7379347;19;20440;-77
2022/09/18 08:31:15;;;;;;;7.15;2.13;;;15.80;64.50;;;;;;7380486;19;20011;-77
2022/09/18 08:33:44;;;;;;;9.85;2.35;;;15.80;64.30;;;;;;7381663;19;20118;-78
2022/09/18 08:36:18;;;;;;;13.90;2.85;;;15.90;64.40;;;;;;7385776;19;20038;-77
2022/09/18 08:38:47;;;;;;;6.78;2.53;;;15.80;64.30;;;;;;7398930;19;20049;-79
2022/09/18 08:41:37;;;;;;;6.93;2.15;;;15.90;64.40;;;;;;7422274;19;20029;-78
2022/09/18 08:44:10;;;;;;;3.28;1.83;;;15.90;64.00;;;;;;7399552;19;20026;-78
2022/09/18 08:46:42;;;;;;;5.95;1.83;;;16.10;63.80;;;;;;7390851;19;20014;-79
2022/09/18 08:49:24;;;;;;;5.10;1.67;;;16.20;63.20;;;;;;7390386;19;20018;-76
2022/09/18 08:52:05;;;;;;;6.47;1.83;;;16.10;63.10;;;;;;7379836;19;20372;-78
2022/09/18 08:54:48;;;;;;;7.22;1.60;;;16.20;62.80;;;;;;7381148;19;20014;-77
2022/09/18 08:57:23;;;;;;;5.22;2.05;;;16.30;62.70;;;;;;7377743;19;20050;-77
2022/09/18 08:59:54;;;;;;;3.20;1.33;;;16.40;62.10;;;;;;7376780;19;20012;-78
2022/09/18 09:02:35;;;;;;;6.05;1.52;;;16.40;62.80;;;;;;7402127;19;20098;-78
2022/09/18 09:05:08;;;;;;;6.82;1.17;;;16.30;61.10;;;;;;7375870;19;20017;-78
2022/09/18 09:08:10;;;;;;;4.13;1.38;;;16.30;60.60;;;;;;7380119;19;20021;-79
2022/09/18 09:10:44;;;;;;;8.55;1.02;;;16.40;60.80;;;;;;7378771;19;20346;-79
2022/09/18 09:13:51;;;;;;;7.28;1.40;;;16.50;60.00;;;;;;7388648;19;20014;-82
2022/09/18 09:16:30;;;;;;;5.18;1.40;;;16.50;60.50;;;;;;7385515;19;20014;-82
2022/09/18 09:19:02;;;;;;;5.03;1.20;;;16.60;59.80;;;;;;7385694;19;20014;-80
2022/09/18 09:22:15;;;;;;;4.22;1.20;;;16.50;58.50;;;;;;7385977;19;20038;-82
2022/09/18 09:25:05;;;;;;;2.88;0.85;;;16.40;58.90;;;;;;7388149;19;20025;-82
2022/09/18 09:27:52;;;;;;;8.18;1.27;;;16.70;59.30;;;;;;7384547;19;20014;-80
2022/09/18 09:30:46;;;;;;;5.22;1.00;;;16.70;57.90;;;;;;7329834;19;20014;-85
2022/09/18 09:33:22;;;;;;;4.60;1.20;;;16.90;57.60;;;;;;7407258;19;20441;-80
2022/09/18 10:37:41;;;;;;;3.25;1.17;;;17.20;53.70;;;;;;7374583;19;20007;-76
2022/09/18 10:40:31;;;;;;;6.15;1.15;;;17.40;53.90;;;;;;7374384;19;20025;-78
2022/09/18 10:43:01;;;;;;;3.70;1.10;;;17.20;53.60;;;;;;7381818;19;20024;-78
2022/09/18 10:45:35;;;;;;;5.53;1.13;;;17.30;53.20;;;;;;7377820;19;20026;-81
2022/09/18 10:48:12;;;;;;;2.55;0.90;;;17.60;53.30;;;;;;7375150;19;20014;-79
2022/09/18 10:50:52;;;;;;;4.18;1.23;;;17.50;53.30;;;;;;7375259;19;20046;-79
2022/09/18 10:53:31;;;;;;;6.40;1.20;;;17.50;52.80;;;;;;7395486;19;20397;-79
2022/09/18 10:56:06;;;;;;;4.15;1.00;;;17.70;53.10;;;;;;7374053;19;20081;-79
2022/09/18 10:58:35;;;;;;;5.30;1.20;;;17.80;52.80;;;;;;7372778;19;20029;-79
2022/09/18 11:01:06;;;;;;;6.78;1.20;;;17.80;52.70;;;;;;7375265;19;20097;-79
2022/09/18 11:03:48;;;;;;;4.65;1.35;;;17.80;52.00;;;;;;7375268;19;20022;-79
2022/09/18 11:06:18;;;;;;;;;;;17.70;52.10;;;;;;7377326;19;20018;-78
2022/09/18 11:08:56;;;;;;;4.70;1.20;;;17.70;52.40;;;;;;7377869;19;19915;-79
2022/09/18 11:11:28;;;;;;;2.83;1.08;;;17.80;52.50;;;;;;7395361;19;20548;-79
2022/09/18 11:14:01;;;;;;;2.33;1.20;;;17.90;52.80;;;;;;7383879;19;20026;-79
2022/09/18 11:16:33;;;;;;;3.63;1.40;;;18.10;52.80;;;;;;7377948;19;20015;-77
2022/09/18 11:19:14;;;;;;;3.15;1.20;;;18.30;52.60;;;;;;7376425;19;20007;-77
2022/09/18 11:21:46;;;;;;;1.80;1.10;;;18.20;52.20;;;;;;7377620;19;20011;-77
2022/09/18 11:24:30;;;;;;;2.30;0.93;;;18.20;51.50;;;;;;7375944;19;20748;-77
2022/09/18 11:27:00;;;;;;;5.68;1.50;;;18.10;52.00;;;;;;7368747;19;20406;-77
2022/09/18 11:29:38;;;;;;;4.75;1.20;;;17.90;52.30;;;;;;7393431;19;20023;-78
2022/09/18 11:32:20;;;;;;;6.93;1.30;;;18.00;52.20;;;;;;7371301;19;20018;-81
2022/09/18 11:34:52;;;;;;;6.38;1.67;;;18.00;53.00;;;;;;7369599;19;20086;-83
2022/09/18 11:37:31;;;;;;;2.72;1.00;;;18.20;52.90;;;;;;7374196;19;20011;-81
2022/09/18 11:40:07;;;;;;;1.55;1.10;;;18.40;52.90;;;;;;7373823;19;20022;-80
2022/09/18 11:42:43;;;;;;;3.13;1.20;;;18.40;51.70;;;;;;7379365;19;20106;-80
2022/09/18 11:45:34;;;;;;;6.07;1.42;;;18.10;50.40;;;;;;7377511;19;20392;-78
2022/09/18 11:48:28;;;;;;;3.03;1.20;;;18.10;51.10;;;;;;7369611;19;20011;-79
2022/09/18 11:51:03;;;;;;;3.45;1.20;;;18.10;51.30;;;;;;7370400;19;20033;-80
2022/09/18 11:53:36;;;;;;;4.18;1.05;;;18.40;50.90;;;;;;7391228;19;20022;-79
2022/09/18 11:56:14;;;;;;;4.40;1.15;;;18.40;50.70;;;;;;7393819;19;20019;-77
2022/09/18 11:58:49;;;;;;;3.20;1.10;;;18.50;50.70;;;;;;7370389;19;20015;-78
2022/09/18 12:01:28;;;;;;;4.85;1.75;;;18.60;50.60;;;;;;7381529;19;20045;-77
2022/09/18 12:04:12;;;;;;;1.70;1.02;;;18.60;50.70;;;;;;7382162;19;20086;-78
2022/09/18 12:06:49;;;;;;;1.48;1.00;;;18.40;50.80;;;;;;7382334;19;20042;-80
2022/09/18 12:09:24;;;;;;;3.53;0.93;;;18.40;50.30;;;;;;7383879;19;20021;-79
2022/09/18 12:12:31;;;;;;;3.88;0.90;;;18.60;50.80;;;;;;7390205;19;20029;-82
2022/09/18 12:18:26;;;;;;;4.40;1.10;;;18.70;50.60;;;;;;7395373;19;20062;-79
2022/09/18 12:21:57;;;;;;;4.63;1.15;;;18.90;50.30;;;;;;7345540;19;20014;-80
2022/09/18 12:25:07;;;;;;;2.72;1.00;;;18.90;49.70;;;;;;7433322;19;20031;-79
2022/09/18 12:27:44;;;;;;;4.57;1.10;;;18.90;49.80;;;;;;7401429;19;20018;-79
2022/09/18 12:54:57;;;;;;;3.03;1.00;;;20.20;47.60;;;;;;7371149;19;20019;-83
2022/09/18 12:57:50;;;;;;;4.60;1.02;;;20.20;48.10;;;;;;7374875;19;20085;-82
2022/09/18 13:00:45;;;;;;;7.50;1.30;;;20.10;48.20;;;;;;7341469;19;20025;-82
2022/09/18 13:03:25;;;;;;;2.67;1.00;;;20.10;49.00;;;;;;7371671;19;20019;-82
2022/09/18 13:06:24;;;;;;;7.25;1.42;;;20.20;48.60;;;;;;7331776;19;20024;-82
2022/09/18 13:09:11;;;;;;;4.70;1.25;;;19.80;49.40;;;;;;7377096;19;20022;-83
2022/09/18 13:12:19;;;;;;;2.42;1.20;;;19.70;49.40;;;;;;7372027;19;20018;-82
2022/09/18 13:15:27;;;;;;;6.07;1.20;;;19.70;49.50;;;;;;7371741;19;20078;-82
2022/09/18 13:18:16;;;;;;;;;;;19.60;50.10;;;;;;7373237;19;20047;-84
2022/09/18 13:20:51;;;;;;;5.28;1.55;;;19.70;49.50;;;;;;7338030;19;20302;-82
2022/09/18 13:23:38;;;;;;;4.22;1.20;;;19.90;50.10;;;;;;7396734;19;20031;-82
2022/09/18 13:29:49;;;;;;;2.97;1.08;;;20.20;48.60;;;;;;7378078;19;20018;-82
2022/09/18 13:32:53;;;;;;;2.80;1.20;;;20.30;48.20;;;;;;7377939;19;20038;-82
2022/09/18 13:35:38;;;;;;;3.05;1.30;;;20.40;48.40;;;;;;7378952;19;20491;-83
2022/09/18 13:38:38;;;;;;;3.40;1.17;;;20.50;48.30;;;;;;7381093;19;20052;-82
2022/09/18 13:41:24;;;;;;;8.57;1.40;;;20.30;48.40;;;;;;7378889;19;20437;-82
2022/09/18 13:44:11;;;;;;;5.20;1.17;;;20.20;48.40;;;;;;7379297;19;20638;-83
2022/09/18 13:46:45;;;;;;;3.83;1.25;;;19.90;49.10;;;;;;7377940;19;20025;-82
2022/09/18 13:49:40;;;;;;;2.13;1.10;;;20.00;49.10;;;;;;7383919;19;20018;-83
2022/09/18 13:52:56;;;;;;;3.47;1.30;;;19.90;49.60;;;;;;7383117;19;20014;-83
2022/09/18 13:56:07;;;;;;;3.30;1.10;;;20.00;49.50;;;;;;7377479;19;20019;-83
2022/09/18 13:59:04;;;;;;;4.05;1.35;;;20.30;48.20;;;;;;7376845;19;20014;-82
2022/09/18 14:05:43;;;;;;;4.28;1.25;;;20.70;46.70;;;;;;7381782;19;20014;-84
2022/09/18 14:08:51;;;;;;;4.90;1.27;;;20.50;47.20;;;;;;7379093;19;20011;-82
2022/09/18 14:11:47;;;;;;;5.18;1.27;;;20.30;48.30;;;;;;7384971;19;20050;-83
2022/09/18 14:14:31;;;;;;;3.80;1.25;;;20.20;48.10;;;;;;7381374;19;20134;-83
2022/09/18 14:17:25;;;;;;;5.05;1.63;;;20.20;47.60;;;;;;7377892;19;20059;-84
2022/09/18 14:20:11;;;;;;;1.98;1.08;;;20.10;47.20;;;;;;7375813;19;20070;-83
2022/09/18 14:23:03;;;;;;;4.40;1.67;;;20.30;47.20;;;;;;7340253;19;20475;-83
2022/09/18 14:26:01;;;;;;;3.00;1.42;;;20.30;46.80;;;;;;7384316;19;20022;-83
2022/09/18 14:31:31;;;;;;;2.50;1.30;;;20.40;46.70;;;;;;7384432;19;20025;-83
2022/09/18 14:34:05;;;;;;;8.52;1.58;;;20.40;47.00;;;;;;7377724;19;20018;-82
2022/09/18 14:36:58;;;;;;;2.33;1.23;;;20.10;47.50;;;;;;7377266;19;20091;-83
2022/09/18 14:39:34;;;;;;;4.38;1.63;;;20.00;47.70;;;;;;7375002;19;20186;-85
2022/09/18 14:42:14;;;;;;;1.80;1.23;;;20.10;47.50;;;;;;7382096;19;20015;-84
2022/09/18 14:44:51;;;;;;;8.90;1.40;;;19.90;47.20;;;;;;7376822;19;20041;-80
2022/09/18 14:47:23;;;;;;;9.80;1.50;;;19.90;47.20;;;;;;7399068;19;20015;-81
2022/09/18 14:49:52;;;;;;;4.68;1.60;;;20.00;47.80;;;;;;7383510;19;20011;-82
2022/09/18 14:52:23;;;;;;;5.05;1.50;;;20.10;47.20;;;;;;7387413;19;20022;-81
2022/09/18 14:54:55;;;;;;;1.42;1.17;;;20.30;46.80;;;;;;7388532;19;20164;-79
2022/09/18 14:57:28;;;;;;;;;;;20.30;46.40;;;;;;7386549;19;20109;-79
2022/09/18 15:00:00;;;;;;;5.63;1.60;;;20.40;46.60;;;;;;7377445;19;19923;-80
2022/09/18 15:02:33;;;;;;;2.53;1.38;;;20.40;47.00;;;;;;7399862;19;20037;-81
2022/09/18 15:08:06;;;;;;;1.70;1.35;;;20.40;47.30;;;;;;7376819;19;20018;-83
2022/09/18 15:11:20;;;;;;;2.35;1.42;;;20.30;47.60;;;;;;7379844;19;20018;-86
2022/09/18 15:17:35;;;;;;;3.38;1.60;;;20.30;47.70;;;;;;7393871;19;20021;-83
2022/09/18 15:24:39;;;;;;;4.82;1.35;;;20.40;47.40;;;;;;7274477;19;2004680;-83
2022/09/18 15:27:10;;;;;;;3.22;1.23;;;20.60;45.70;;;;;;7329520;19;20014;-79
2022/09/18 15:29:48;;;;;;;5.65;1.08;;;20.80;46.00;;;;;;7372501;19;20022;-80
2022/09/18 15:59:53;;;;;;;1.33;0.85;;;21.10;45.30;;;;;;7380184;19;20022;-84
2022/09/18 16:02:56;;;;;;;4.63;0.93;;;21.10;44.00;;;;;;7402606;19;20052;-83
2022/09/18 18:22:19;;;;;;;3.63;1.20;;;18.50;49.90;;;;;;7389458;19;20175;-89
